• Join FlightAware (Why Join?)
  • Login
  • US Flag 
08:30PM EDT


 

Airport Tracker/Info


-or-


 

Live Flight TrackerFlight Track Log ✈ N91FR ✈ 11-Feb-2014 ✈ KMFR - KOTH

Flight Track Log - Related Links

Times and Time Zones

All times are in EST time to prevent confusion due to time zone crossing. See the N91FR flight status page for this flight to view local times or setup timezone preferences in your user account.

Time Position Orientation Groundspeed Altitude Reporting Facility
EST Latitude Longitude Course Direction KTS MPH feet Rate Location/Type
12:49PM 42.4350 -122.9739 240° Southwest  Level FlightAware Approximate
12:49PM 42.4031 -123.0578 240° Southwest 101 116 6,100  Level Seattle Center
12:50PM 42.4183 -123.0128 240° Southwest  Level FlightAware Approximate
12:50PM 42.3864 -123.0897 235° Southwest 104 120 6,900  Level Seattle Center
12:51PM 42.3948 -123.0436 236° Southwest  Level FlightAware Approximate
12:51PM 42.3697 -123.1211 234° Southwest 103 119 7,800  Level Seattle Center
12:52PM 42.3770 -123.0815 240° Southwest  Level FlightAware Approximate
12:52PM 42.3514 -123.1578 236° Southwest 116 133 8,000  Level Seattle Center
12:53PM 42.3603 -123.1204 240° Southwest  Level FlightAware Approximate
12:53PM 42.3314 -123.1919 232° Southwest 116 133 8,000  Level Seattle Center
12:54PM 42.3437 -123.1593 240° Southwest  Level FlightAware Approximate
12:54PM 42.3139 -123.2292 238° Southwest 117 135 8,000  Level Seattle Center
12:55PM 42.2942 -123.2661 234° Southwest 121 139 8,000  Level Seattle Center
12:56PM 42.2756 -123.3011 234° Southwest 123 142 8,000  Level Seattle Center
12:57PM 42.2558 -123.3406 236° Southwest 125 144 8,000  Level Seattle Center
12:58PM 42.2367 -123.3775 235° Southwest 123 142 8,000  Level Seattle Center
12:59PM 42.2186 -123.4144 237° Southwest 121 139 8,000  Level Seattle Center
01:00PM 42.1992 -123.4522 235° Southwest 121 139 8,000  Level Seattle Center
01:01PM 42.1797 -123.4897 235° Southwest 121 139 8,000  Level Seattle Center
01:02PM 42.1603 -123.5339 239° Southwest 121 139 8,000  Level Seattle Center
01:03PM 42.1311 -123.5817 231° Southwest 131 151 8,000  Level Seattle Center
01:04PM 42.1117 -123.6136 231° Southwest 122 140 8,000  Level Seattle Center
01:05PM 42.0919 -123.6519 235° Southwest 123 142 8,000  Level Seattle Center
01:06PM 42.0717 -123.6917 235° Southwest 126 145 8,000  Level Seattle Center
01:07PM 42.0483 -123.7367 235° Southwest 125 144 8,000  Level Seattle Center
01:08PM 42.0281 -123.7728 233° Southwest 124 143 8,000  Level Seattle Center
01:09PM 42.0081 -123.8094 234° Southwest 123 142 8,000  Level Seattle Center
01:10PM 41.9919 -123.8414 236° Southwest 122 140 8,000  Level Seattle Center
01:16PM 41.8756 -124.0600 231° Southwest 145 167 8,000  Level Seattle Center
01:17PM 41.8544 -124.0900 227° Southwest 104 120 8,000 -360 Level Seattle Center
01:18PM 41.8361 -124.1356 242° Southwest 126 145 7,300 -600 Descending Seattle Center
01:19PM 41.8167 -124.1499 236° Southwest  Level FlightAware Approximate
01:19PM 41.8117 -124.1772 232° Southwest 127 146 6,800  Level Seattle Center
01:20PM 41.7951 -124.1860 231° Southwest  Level FlightAware Approximate
01:20PM 41.7881 -124.2200 233° Southwest 128 147 6,500  Level Seattle Center
01:21PM 41.7734 -124.2221 231° Southwest  Level FlightAware Approximate
01:21PM 41.7986 -124.2678 287° West 141 162 5,400  Level Seattle Center
01:22PM 41.8258 -124.3058 314° West 140 161 4,700 -660 Descending Seattle Center
01:23PM 41.8550 -124.3439 316° Northwest 144 166 4,100 -660 Descending Seattle Center
01:24PM 41.8839 -124.3825 315° West 146 168 3,400 -660 Descending Seattle Center
01:25PM 41.9117 -124.4242 312° West 147 169 2,800 -420 Descending Seattle Center
01:26PM 41.9303 -124.4661 301° West 139 160 2,600 -120 Descending Seattle Center
01:27PM 41.9400 -124.5061 288° West 124 143 2,600  Level Seattle Center
01:28PM 41.9625 -124.5286 323° Northwest 119 137 2,600  Level Seattle Center
01:29PM 41.9589 -124.4911 97° East 118 136 2,600  Level Seattle Center
01:30PM 41.9392 -124.4639 134° Southeast 107 123 2,600  Level Seattle Center
01:31PM 41.9186 -124.4344 133° Southeast 107 123 2,600  Level Seattle Center
01:32PM 41.8947 -124.3983 132° Southeast 107 123 2,600  Level Seattle Center
01:33PM 41.8744 -124.3700 134° Southeast 107 123 2,600 -240 Level Seattle Center
01:34PM 41.8536 -124.3411 134° Southeast 107 123 2,200 -540 Descending Seattle Center
01:35PM 41.8339 -124.3114 132° Southeast 107 123 1,600 -600 Descending Seattle Center
01:36PM 41.8164 -124.2842 131° Southeast 104 120 1,000 -540 Descending Seattle Center
01:37PM 41.8033 -124.2644 132° Southeast 90 104 600 -360 Descending Seattle Center
01:38PM 41.7897 -124.2475 137° Southeast 79 91 300  Descending Seattle Center
01:39PM 41.7742 -124.2281 137° Southeast 76 87 700 600 Climbing Seattle Center
01:40PM 41.7483 -124.2303 184° South 88 101 1,600 840 Climbing Seattle Center
01:41PM 41.7244 -124.2325 184° South 89 102 2,500 660 Climbing Seattle Center
01:42PM 41.6983 -124.2331 181° South 90 104 3,000 240 Climbing Seattle Center
01:43PM 41.6989 -124.2633 271° West 114 131 3,000  Level Seattle Center
01:44PM 41.7364 -124.2528 12° North 131 151 3,000  Level Seattle Center
01:45PM 41.7806 -124.2403 12° North 135 155 3,000  Level Seattle Center
01:47PM 41.8047 -124.2772 311° West 139 160 3,000  Level Seattle Center
01:48PM 41.8308 -124.3108 316° Northwest 135 155 3,000  Level Seattle Center
01:49PM 41.8547 -124.3453 313° West 130 150 3,000 60 Level Seattle Center
01:50PM 41.8803 -124.3800 315° West 130 150 3,200 540 Climbing Seattle Center
01:51PM 41.9050 -124.4122 316° Northwest 129 148 4,100 780 Climbing Seattle Center
01:52PM 41.9269 -124.4406 316° Northwest 121 139 4,900 840 Climbing Seattle Center
01:53PM 41.9492 -124.4678 318° Northwest 115 132 5,900 900 Climbing Seattle Center
01:54PM 41.9828 -124.4675 360° North 123 142 6,800 780 Climbing Seattle Center
01:55PM 42.0139 -124.4694 357° North 119 137 7,600 540 Climbing Seattle Center
01:56PM 42.0503 -124.4722 357° North 122 140 8,000 180 Climbing Seattle Center
01:57PM 42.0978 -124.4703 North 135 155 8,000  Level Seattle Center
01:58PM 42.1389 -124.4689 North 142 163 8,000  Level Seattle Center
01:59PM 42.1786 -124.4597 10° North 143 165 8,000  Level Seattle Center
02:00PM 42.2183 -124.4467 14° North 144 166 8,000  Level Seattle Center
02:01PM 42.2583 -124.4333 14° North 146 168 8,000  Level Seattle Center
02:02PM 42.2992 -124.4200 14° North 148 170 8,000  Level Seattle Center
02:03PM 42.3389 -124.4089 12° North 148 170 8,000  Level Seattle Center
02:04PM 42.3803 -124.3972 12° North 150 173 8,000  Level Seattle Center
02:05PM 42.4208 -124.3856 12° North 150 173 8,000  Level Seattle Center
02:06PM 42.4611 -124.3750 11° North 149 171 8,000  Level Seattle Center
02:07PM 42.5014 -124.3636 12° North 148 170 8,000  Level Seattle Center
02:08PM 42.5417 -124.3522 12° North 149 171 8,000  Level Seattle Center
02:09PM 42.5903 -124.3389 11° North 149 171 8,000  Level Seattle Center
02:10PM 42.6306 -124.3258 13° North 149 171 8,000  Level Seattle Center
02:11PM 42.6708 -124.3144 12° North 148 170 8,000 -60 Level Seattle Center
02:12PM 42.7111 -124.2997 15° North 149 171 7,900 -60 Descending Seattle Center
02:13PM 42.7492 -124.2922 North 151 174 7,900  Level Seattle Center
02:14PM 42.7922 -124.2761 15° North 149 171 7,900  Level Seattle Center
02:15PM 42.8333 -124.2639 12° North 150 173 7,900  Level Seattle Center
02:16PM 42.8725 -124.2558 North 146 168 7,900  Level Seattle Center
02:17PM 42.9139 -124.2447 11° North 150 173 7,900  Level Seattle Center
02:18PM 42.9589 -124.2319 12° North 150 173 8,000  Climbing Seattle Center
02:19PM 42.9997 -124.2203 12° North 150 173 7,900 -300 Descending Seattle Center
02:20PM 43.0431 -124.2108 North 156 180 7,400 -540 Descending Seattle Center
02:21PM 43.0858 -124.2011 North 156 180 6,900 -540 Descending Seattle Center
02:22PM 43.1289 -124.1856 15° North 159 183 6,400 -300 Descending Seattle Center
02:23PM 43.1517 -124.2189 313° West 139 160 6,400 -60 Level Seattle Center
02:24PM 43.1567 -124.2594 280° West 116 133 6,300 -360 Descending Seattle Center
02:25PM 43.1664 -124.3011 288° West 114 131 5,700 -600 Descending Seattle Center
02:26PM 43.1817 -124.3453 295° West 121 139 5,200 -600 Descending Seattle Center
02:27PM 43.2036 -124.3878 305° West 128 147 4,600 -660 Descending Seattle Center
02:28PM 43.2283 -124.4289 310° West 133 153 3,900 -720 Descending Seattle Center
02:30PM 43.2558 -124.4025 299° West  Level Estimated
02:37PM 43.3617 -124.3457 61° Northeast  Level FlightAware Approximate
02:38PM 43.3753 -124.3161 55° Northeast  Level FlightAware Approximate
02:39PM 43.3897 -124.2873 55° Northeast  Level FlightAware Approximate
02:40PM 43.4042 -124.2584 55° Northeast  Level FlightAware Approximate
02:41PM 43.4167 -124.2333 55° Northeast  Level FlightAware Approximate
02:42PM 43.4169 -124.2470 55° Northeast  Level Estimated